createdAt,value
2023-07-11T00:00:16.565Z,3.10
2023-07-11T00:02:44.446Z,2.90
2023-07-11T00:05:13.948Z,3.00
2023-07-11T00:07:41.115Z,3.10
2023-07-11T00:10:10.617Z,3.00
2023-07-11T00:12:37.210Z,2.90
2023-07-11T00:15:04.666Z,3.20
2023-07-11T00:17:31.215Z,2.87
2023-07-11T00:19:59.444Z,3.03
2023-07-11T00:22:29.689Z,3.30
2023-07-11T00:24:56.562Z,3.50
2023-07-11T00:27:24.464Z,3.17
2023-07-11T00:29:52.145Z,3.10
2023-07-11T00:32:18.657Z,3.70
2023-07-11T00:34:45.370Z,3.23
2023-07-11T00:37:11.909Z,3.90
2023-07-11T00:39:38.529Z,3.30
2023-07-11T00:42:07.020Z,3.30
2023-07-11T00:44:57.960Z,3.70
2023-07-11T00:47:27.342Z,3.40
2023-07-11T00:50:02.861Z,3.27
2023-07-11T00:52:29.987Z,3.40
2023-07-11T00:54:59.751Z,3.23
2023-07-11T00:57:30.149Z,2.90
2023-07-11T00:59:56.597Z,3.57
2023-07-11T01:02:29.266Z,3.23
2023-07-11T01:04:56.371Z,3.30
2023-07-11T01:07:26.893Z,3.20
2023-07-11T01:09:53.600Z,3.47
2023-07-11T01:12:20.738Z,3.27
2023-07-11T01:14:50.028Z,3.10
2023-07-11T01:17:25.406Z,3.20
2023-07-11T01:19:52.746Z,3.30
2023-07-11T01:22:19.299Z,3.37
2023-07-11T01:24:45.771Z,3.67
2023-07-11T01:27:12.190Z,3.30
2023-07-11T01:29:38.651Z,3.47
2023-07-11T01:32:05.596Z,3.40
2023-07-11T01:34:33.336Z,3.17
2023-07-11T01:36:59.730Z,3.30
2023-07-11T01:39:26.345Z,2.93
2023-07-11T01:41:52.690Z,3.27
2023-07-11T01:44:22.127Z,3.60
2023-07-11T01:46:48.565Z,3.00
2023-07-11T01:49:15.039Z,3.37
2023-07-11T01:51:45.861Z,3.37
2023-07-11T01:54:13.165Z,3.27
2023-07-11T01:56:39.737Z,3.67
2023-07-11T01:59:07.519Z,3.10
2023-07-11T02:01:34.781Z,3.00
2023-07-11T02:04:01.417Z,3.17
2023-07-11T02:06:29.489Z,2.97
2023-07-11T02:08:55.882Z,2.87
2023-07-11T02:11:22.307Z,3.50
2023-07-11T02:13:48.679Z,3.30
2023-07-11T02:16:15.165Z,2.83
2023-07-11T02:18:41.605Z,3.13
2023-07-11T02:21:07.936Z,3.10
2023-07-11T02:23:34.359Z,3.43
2023-07-11T02:26:00.803Z,3.30
2023-07-11T02:28:27.158Z,3.50
2023-07-11T02:30:53.510Z,3.33
2023-07-11T02:33:19.898Z,3.50
2023-07-11T02:35:46.259Z,3.50
2023-07-11T02:38:12.596Z,3.20
2023-07-11T02:40:39.091Z,3.83
2023-07-11T02:43:05.556Z,4.20
2023-07-11T02:45:31.972Z,3.70
2023-07-11T02:47:58.382Z,3.37
2023-07-11T02:50:24.837Z,3.60
2023-07-11T02:52:51.186Z,3.37
2023-07-11T02:55:17.608Z,3.40
2023-07-11T02:57:44.498Z,3.73
2023-07-11T03:00:11.616Z,3.97
2023-07-11T03:02:38.367Z,4.13
2023-07-11T03:05:08.873Z,3.70
2023-07-11T03:07:36.048Z,3.37
2023-07-11T03:10:02.646Z,3.87
2023-07-11T03:12:29.009Z,3.50
2023-07-11T03:14:55.605Z,3.43
2023-07-11T03:17:22.199Z,3.90
2023-07-11T03:19:48.582Z,3.97
2023-07-11T03:22:15.019Z,3.90
2023-07-11T03:24:41.425Z,3.57
2023-07-11T03:27:07.806Z,3.53
2023-07-11T03:29:34.187Z,3.83
2023-07-11T03:32:00.563Z,3.57
2023-07-11T03:34:26.946Z,3.70
2023-07-11T03:36:53.355Z,3.93
2023-07-11T03:39:19.687Z,4.83
2023-07-11T03:41:46.042Z,3.90
2023-07-11T03:44:12.392Z,3.47
2023-07-11T03:46:38.791Z,3.70
2023-07-11T03:49:05.254Z,3.53
2023-07-11T03:51:31.665Z,3.23
2023-07-11T03:53:58.064Z,3.73
2023-07-11T03:56:24.823Z,3.80
2023-07-11T03:58:51.348Z,3.83
2023-07-11T04:01:18.356Z,3.60
2023-07-11T04:03:44.891Z,3.67
2023-07-11T04:06:13.109Z,3.47
2023-07-11T04:08:39.933Z,4.30
2023-07-11T04:11:06.359Z,3.77
2023-07-11T04:13:32.858Z,3.73
2023-07-11T04:15:59.257Z,3.63
2023-07-11T04:18:25.752Z,4.77
2023-07-11T04:20:52.079Z,3.80
2023-07-11T04:23:18.598Z,4.07
2023-07-11T04:25:45.072Z,3.73
2023-07-11T04:28:12.715Z,3.73
2023-07-11T04:30:39.171Z,3.30
2023-07-11T04:33:05.584Z,3.37
2023-07-11T04:35:31.952Z,3.60
2023-07-11T04:37:58.418Z,3.33
2023-07-11T04:40:24.935Z,3.43
2023-07-11T04:42:51.274Z,3.70
2023-07-11T04:45:17.654Z,3.50
2023-07-11T04:47:46.314Z,3.67
2023-07-11T04:50:13.709Z,3.70
2023-07-11T04:52:40.118Z,3.80
2023-07-11T04:55:07.068Z,3.97
2023-07-11T04:57:33.463Z,4.13
2023-07-11T04:59:59.902Z,4.20
2023-07-11T05:02:26.334Z,4.00
2023-07-11T05:04:52.802Z,3.80
2023-07-11T05:07:19.474Z,4.00
2023-07-11T05:09:58.895Z,4.20
2023-07-11T05:12:26.127Z,3.83
2023-07-11T05:14:52.477Z,4.23
2023-07-11T05:17:19.044Z,3.90
2023-07-11T05:19:45.529Z,3.93
2023-07-11T05:22:11.879Z,3.90
2023-07-11T05:24:38.309Z,4.00
2023-07-11T05:27:04.769Z,4.45
2023-07-11T05:29:31.731Z,4.30
2023-07-11T05:31:58.127Z,4.07
2023-07-11T05:34:24.527Z,5.30
2023-07-11T05:36:50.975Z,5.25
2023-07-11T05:39:17.582Z,4.82
2023-07-11T05:41:47.816Z,5.45
2023-07-11T05:44:15.338Z,5.00
2023-07-11T05:46:45.332Z,5.47
2023-07-11T05:49:13.742Z,5.30
2023-07-11T05:51:40.119Z,5.50
2023-07-11T05:54:06.547Z,5.70
2023-07-11T05:56:32.983Z,5.72
2023-07-11T05:59:00.203Z,4.95
2023-07-11T06:01:30.553Z,5.18
2023-07-11T06:04:05.463Z,4.80
2023-07-11T06:06:34.447Z,5.25
2023-07-11T06:09:00.844Z,4.97
2023-07-11T06:11:27.285Z,4.93
2023-07-11T06:13:53.654Z,5.20
2023-07-11T06:16:20.310Z,4.72
2023-07-11T06:18:50.008Z,4.55
2023-07-11T06:21:16.571Z,4.78
2023-07-11T06:23:43.117Z,5.28
2023-07-11T06:26:10.929Z,4.88
2023-07-11T06:28:38.882Z,4.50
2023-07-11T06:31:08.158Z,4.90
2023-07-11T06:33:35.915Z,4.50
2023-07-11T06:36:04.589Z,5.53
2023-07-11T06:38:31.037Z,4.20
2023-07-11T06:40:57.820Z,4.68
2023-07-11T06:43:25.788Z,4.70
2023-07-11T06:45:57.479Z,4.45
2023-07-11T06:48:26.452Z,4.30
2023-07-11T06:50:56.280Z,4.07
2023-07-11T06:53:26.098Z,4.10
2023-07-11T06:55:53.293Z,4.00
2023-07-11T06:58:20.586Z,4.68
2023-07-11T07:00:56.029Z,3.90
2023-07-11T07:03:23.423Z,4.63
2023-07-11T07:05:51.597Z,5.10
2023-07-11T07:08:20.512Z,5.68
2023-07-11T07:10:48.328Z,5.35
2023-07-11T07:13:16.006Z,4.93
2023-07-11T07:15:43.156Z,5.32
2023-07-11T07:18:09.594Z,5.60
2023-07-11T07:20:48.308Z,5.03
2023-07-11T07:23:22.686Z,4.35
2023-07-11T07:25:55.098Z,3.97
2023-07-11T07:28:21.748Z,4.50
2023-07-11T07:30:53.429Z,4.35
2023-07-11T07:33:21.164Z,4.18
2023-07-11T07:35:47.578Z,3.97
2023-07-11T07:38:14.020Z,4.57
2023-07-11T07:40:40.407Z,4.72
2023-07-11T07:43:06.984Z,4.70
2023-07-11T07:45:33.373Z,4.45
2023-07-11T07:47:59.746Z,5.07
2023-07-11T07:50:26.213Z,4.97
2023-07-11T07:52:52.608Z,5.28
2023-07-11T07:55:18.994Z,5.88
2023-07-11T07:57:45.763Z,5.53
2023-07-11T08:00:12.425Z,5.70
2023-07-11T08:02:43.478Z,6.18
2023-07-11T08:05:09.864Z,6.38
2023-07-11T08:07:36.355Z,6.13
2023-07-11T08:10:02.784Z,5.72
2023-07-11T08:12:29.246Z,5.75
2023-07-11T08:14:55.630Z,5.15
2023-07-11T08:17:22.097Z,6.15
2023-07-11T08:19:48.753Z,5.28
2023-07-11T08:22:15.381Z,6.22
2023-07-11T08:24:41.860Z,5.63
2023-07-11T08:27:08.184Z,5.28
2023-07-11T08:29:34.585Z,5.03
2023-07-11T08:32:00.997Z,4.60
2023-07-11T08:34:27.476Z,4.97
2023-07-11T08:36:54.065Z,4.50
2023-07-11T08:39:20.488Z,4.90
2023-07-11T08:41:50.259Z,4.32
2023-07-11T08:44:40.053Z,4.63
2023-07-11T08:47:32.274Z,4.65
2023-07-11T08:50:12.161Z,4.68
2023-07-11T08:52:38.910Z,4.10
2023-07-11T08:55:26.778Z,4.93
2023-07-11T08:58:02.786Z,5.93
2023-07-11T09:00:30.910Z,4.60
2023-07-11T09:03:13.628Z,4.90
2023-07-11T09:05:46.706Z,4.13
2023-07-11T09:08:18.677Z,4.50
2023-07-11T09:10:58.165Z,4.28
2023-07-11T09:13:52.085Z,4.55
2023-07-11T09:16:30.165Z,4.53
2023-07-11T09:18:59.791Z,4.60
2023-07-11T09:21:38.934Z,4.28
2023-07-11T09:24:21.763Z,4.53
2023-07-11T09:26:50.923Z,4.63
2023-07-11T09:29:18.931Z,4.35
2023-07-11T09:31:52.763Z,4.10
2023-07-11T09:34:29.235Z,4.57
2023-07-11T09:36:58.993Z,4.55
2023-07-11T09:39:50.229Z,4.30
2023-07-11T09:42:51.348Z,4.40
2023-07-11T09:45:20.248Z,4.65
2023-07-11T09:47:55.850Z,4.28
2023-07-11T09:50:51.558Z,4.63
2023-07-11T09:53:30.225Z,4.20
2023-07-11T09:56:12.285Z,4.95
2023-07-11T09:58:40.050Z,4.25
2023-07-11T10:01:15.840Z,4.45
2023-07-11T10:03:48.230Z,4.20
2023-07-11T10:06:53.333Z,4.53
2023-07-11T10:09:30.258Z,4.47
2023-07-11T10:11:58.063Z,5.00
2023-07-11T10:14:34.268Z,5.03
2023-07-11T10:17:14.935Z,4.63
2023-07-11T10:19:41.279Z,4.57
2023-07-11T10:22:17.435Z,4.82
2023-07-11T10:24:43.808Z,4.65
2023-07-11T10:27:15.525Z,4.75
2023-07-11T10:29:46.916Z,4.82
2023-07-11T10:32:20.867Z,4.80
2023-07-11T10:34:58.670Z,4.88
2023-07-11T10:37:40.620Z,4.82
2023-07-11T10:40:29.326Z,5.10
2023-07-11T10:43:27.581Z,4.93
2023-07-11T10:46:05.830Z,5.03
2023-07-11T10:48:35.487Z,4.53
2023-07-11T10:51:08.184Z,4.65
2023-07-11T10:53:43.708Z,4.70
2023-07-11T10:56:25.861Z,4.88
2023-07-11T10:58:54.668Z,4.95
2023-07-11T11:01:35.998Z,4.70
2023-07-11T11:04:59.489Z,4.30
2023-07-11T11:07:57.537Z,4.57
2023-07-11T11:10:39.886Z,4.78
2023-07-11T11:13:27.251Z,5.00
2023-07-11T11:16:04.452Z,4.75
2023-07-11T11:18:52.334Z,4.30
2023-07-11T11:24:33.965Z,4.90
2023-07-11T11:27:27.108Z,5.07
2023-07-11T11:30:02.772Z,5.10
2023-07-11T11:33:09.366Z,4.60
2023-07-11T11:35:48.913Z,4.70
2023-07-11T11:38:28.162Z,5.00
2023-07-11T11:41:01.413Z,4.80
2023-07-11T11:43:34.019Z,5.47
2023-07-11T11:51:14.139Z,5.10
2023-07-11T11:53:48.199Z,5.05
2023-07-11T11:56:24.031Z,4.68
2023-07-11T11:59:00.807Z,4.93
2023-07-11T12:01:51.830Z,4.88
2023-07-11T12:04:30.890Z,4.95
2023-07-11T12:07:03.351Z,4.47
2023-07-11T12:09:54.469Z,4.43
2023-07-11T12:12:45.281Z,4.80
2023-07-11T12:15:11.594Z,4.78
2023-07-11T12:17:39.584Z,5.07
2023-07-11T12:20:08.704Z,4.20
2023-07-11T12:22:38.074Z,5.18
2023-07-11T12:25:07.650Z,5.18
2023-07-11T12:27:34.172Z,5.03
2023-07-11T12:30:22.133Z,4.60
2023-07-11T12:32:50.584Z,5.28
2023-07-11T12:35:22.404Z,5.00
2023-07-11T12:37:58.129Z,5.13
2023-07-11T12:41:01.923Z,5.50
2023-07-11T12:43:35.418Z,5.10
2023-07-11T12:46:08.557Z,5.30
2023-07-11T12:48:44.721Z,5.18
2023-07-11T12:51:23.197Z,5.10
2023-07-11T12:53:55.511Z,5.00
2023-07-11T12:56:22.022Z,5.20
2023-07-11T12:58:49.157Z,5.15
2023-07-11T13:01:16.954Z,5.05
2023-07-11T13:03:43.909Z,5.40
2023-07-11T13:06:22.844Z,5.40
2023-07-11T13:08:50.384Z,5.32
2023-07-11T13:11:37.159Z,5.03
2023-07-11T13:14:03.817Z,4.85
2023-07-11T13:16:40.690Z,5.05
2023-07-11T13:19:15.372Z,4.70
2023-07-11T13:21:44.350Z,5.07
2023-07-11T13:24:14.352Z,4.90
2023-07-11T13:26:41.233Z,5.03
2023-07-11T13:29:10.361Z,5.57
2023-07-11T13:31:38.582Z,4.93
2023-07-11T13:34:11.780Z,4.97
2023-07-11T13:36:40.301Z,4.72
2023-07-11T13:39:11.756Z,5.30
2023-07-11T13:41:42.272Z,4.80
2023-07-11T13:44:34.479Z,4.88
2023-07-11T13:47:03.750Z,5.22
2023-07-11T13:49:42.845Z,5.32
2023-07-11T13:52:40.745Z,5.10
2023-07-11T13:55:18.704Z,5.18
2023-07-11T13:57:45.344Z,5.60
2023-07-11T14:00:16.286Z,5.30
2023-07-11T14:02:45.107Z,5.05
2023-07-11T14:05:19.536Z,5.20
2023-07-11T14:07:45.995Z,5.03
2023-07-11T14:10:13.568Z,5.28
2023-07-11T14:12:41.606Z,5.40
2023-07-11T14:15:19.529Z,5.25
2023-07-11T14:17:46.554Z,5.38
2023-07-11T14:20:19.004Z,5.47
2023-07-11T14:22:46.792Z,5.30
2023-07-11T14:25:15.132Z,5.50
2023-07-11T14:27:42.739Z,5.25
2023-07-11T14:30:12.261Z,5.45
2023-07-11T14:32:39.324Z,5.32
2023-07-11T14:35:14.267Z,5.20
2023-07-11T14:37:40.697Z,5.18
2023-07-11T14:40:14.397Z,5.53
2023-07-11T14:42:40.785Z,5.32
2023-07-11T14:45:18.462Z,5.53
2023-07-11T14:47:47.327Z,5.68
2023-07-11T14:50:20.248Z,5.25
2023-07-11T14:52:47.744Z,4.90
2023-07-11T15:00:24.258Z,5.22
2023-07-11T15:02:51.468Z,5.30
2023-07-11T15:10:27.416Z,5.15
2023-07-11T15:15:27.066Z,5.20
2023-07-11T15:17:53.865Z,5.47
2023-07-11T15:20:23.642Z,5.63
2023-07-11T15:22:53.474Z,4.95
2023-07-11T15:25:29.029Z,5.30
2023-07-11T15:27:55.724Z,5.60
2023-07-11T15:30:22.106Z,5.40
2023-07-11T15:32:48.583Z,5.60
2023-07-11T15:35:22.990Z,5.63
2023-07-11T15:37:51.291Z,5.60
2023-07-11T15:40:26.383Z,5.10
2023-07-11T15:42:54.363Z,5.68
2023-07-11T15:45:25.063Z,5.05
2023-07-11T15:47:51.970Z,4.95
2023-07-11T15:50:22.464Z,5.40
2023-07-11T15:52:49.007Z,5.03
2023-07-11T15:55:22.138Z,4.93
2023-07-11T15:57:54.563Z,5.00
2023-07-11T16:00:24.286Z,4.90
2023-07-11T16:02:51.759Z,4.78
2023-07-11T16:05:22.585Z,4.88
2023-07-11T16:07:50.074Z,5.32
2023-07-11T16:10:22.519Z,4.97
2023-07-11T16:12:49.110Z,5.93
2023-07-11T16:15:15.932Z,5.10
2023-07-11T16:17:46.823Z,5.20
2023-07-11T16:20:20.593Z,5.45
2023-07-11T16:22:47.278Z,5.18
2023-07-11T16:25:16.741Z,5.43
2023-07-11T16:27:52.721Z,5.05
2023-07-11T16:30:22.650Z,5.30
2023-07-11T16:32:50.543Z,5.50
2023-07-11T16:35:20.876Z,5.18
2023-07-11T16:37:48.713Z,5.35
2023-07-11T16:40:19.041Z,5.60
2023-07-11T16:42:45.464Z,5.40
2023-07-11T16:45:16.774Z,5.22
2023-07-11T16:47:45.754Z,5.25
2023-07-11T16:50:25.551Z,5.63
2023-07-11T16:52:53.221Z,5.53
2023-07-11T16:55:19.630Z,5.72
2023-07-11T16:57:46.077Z,5.45
2023-07-11T17:00:24.520Z,5.45
2023-07-11T17:02:52.386Z,5.72
2023-07-11T17:05:21.226Z,5.72
2023-07-11T17:07:49.666Z,5.28
2023-07-11T17:10:17.942Z,5.53
2023-07-11T17:12:44.863Z,5.50
2023-07-11T17:15:14.754Z,5.53
2023-07-11T17:17:41.307Z,6.53
2023-07-11T17:20:21.998Z,6.47
2023-07-11T17:22:49.672Z,7.05
2023-07-11T17:25:21.244Z,6.15
2023-07-11T17:27:51.590Z,5.78
2023-07-11T17:30:20.849Z,5.53
2023-07-11T17:32:47.918Z,6.43
2023-07-11T17:35:18.554Z,6.00
2023-07-11T17:37:51.635Z,6.28
2023-07-11T17:40:26.038Z,6.10
2023-07-11T17:42:53.290Z,6.43
2023-07-11T17:45:46.001Z,6.78
2023-07-11T17:48:18.387Z,7.00
2023-07-11T17:50:47.953Z,6.93
2023-07-11T17:53:15.273Z,6.60
2023-07-11T17:55:42.881Z,6.53
2023-07-11T17:58:30.008Z,6.07
2023-07-11T18:00:59.178Z,5.97
2023-07-11T18:03:27.311Z,6.30
2023-07-11T18:05:54.980Z,6.32
2023-07-11T18:08:23.112Z,7.00
2023-07-11T18:10:53.037Z,7.07
2023-07-11T18:13:20.144Z,7.28
2023-07-11T18:15:48.476Z,10.77
2023-07-11T18:18:27.082Z,7.68
2023-07-11T18:20:56.188Z,8.23
2023-07-11T18:23:23.034Z,7.30
2023-07-11T18:25:52.746Z,7.25
2023-07-11T18:28:20.990Z,7.00
2023-07-11T18:30:48.170Z,7.25
2023-07-11T18:33:14.907Z,6.78
2023-07-11T18:35:41.684Z,7.50
2023-07-11T18:38:21.840Z,7.38
2023-07-11T18:40:49.426Z,7.20
2023-07-11T18:43:18.228Z,7.40
2023-07-11T18:45:47.535Z,7.38
2023-07-11T18:48:14.628Z,8.27
2023-07-11T18:50:43.017Z,7.28
2023-07-11T18:53:09.471Z,7.63
2023-07-11T18:55:35.903Z,6.50
2023-07-11T18:58:05.049Z,6.95
2023-07-11T19:00:38.535Z,7.22
2023-07-11T19:03:09.822Z,7.53
2023-07-11T19:05:38.854Z,6.95
2023-07-11T19:08:20.241Z,7.28
2023-07-11T19:10:47.474Z,7.57
2023-07-11T19:13:14.206Z,7.40
2023-07-11T19:15:42.194Z,7.28
2023-07-11T19:18:21.978Z,6.53
2023-07-11T19:20:49.613Z,7.57
2023-07-11T19:23:20.827Z,7.65
2023-07-11T19:25:49.014Z,9.13
2023-07-11T19:28:16.798Z,7.75
2023-07-11T19:30:49.962Z,7.30
2023-07-11T19:33:17.868Z,7.50
2023-07-11T19:35:59.016Z,7.65
2023-07-11T19:38:28.578Z,7.40
2023-07-11T19:40:55.710Z,7.32
2023-07-11T19:43:22.742Z,7.50
2023-07-11T19:45:54.298Z,8.25
2023-07-11T19:48:24.490Z,7.60
2023-07-11T19:50:56.255Z,7.30
2023-07-11T19:53:24.823Z,6.80
2023-07-11T19:55:54.086Z,7.43
2023-07-11T19:58:23.539Z,8.05
2023-07-11T20:00:55.581Z,7.35
2023-07-11T20:03:25.150Z,8.00
2023-07-11T20:05:51.748Z,7.78
2023-07-11T20:08:20.245Z,7.80
2023-07-11T20:10:52.584Z,7.10
2023-07-11T20:13:21.310Z,7.80
2023-07-11T20:16:01.284Z,7.13
2023-07-11T20:18:31.388Z,6.53
2023-07-11T20:21:04.516Z,7.03
2023-07-11T20:23:31.073Z,6.63
2023-07-11T20:26:05.869Z,6.90
2023-07-11T20:28:33.223Z,6.72
2023-07-11T20:31:01.430Z,6.68
2023-07-11T20:33:27.849Z,7.20
2023-07-11T20:35:57.260Z,6.88
2023-07-11T20:38:24.824Z,6.90
2023-07-11T20:40:51.781Z,7.38
2023-07-11T20:43:18.919Z,7.05
2023-07-11T20:45:48.790Z,6.95
2023-07-11T20:48:21.300Z,6.57
2023-07-11T20:50:48.521Z,7.20
2023-07-11T20:53:15.452Z,7.20
2023-07-11T20:55:47.359Z,7.05
2023-07-11T20:58:16.324Z,7.22
2023-07-11T21:00:43.547Z,7.55
2023-07-11T21:03:14.264Z,6.95
2023-07-11T21:05:41.920Z,7.80
2023-07-11T21:08:28.880Z,6.80
2023-07-11T21:10:56.620Z,7.25
2023-07-11T21:13:23.839Z,7.82
2023-07-11T21:15:51.870Z,6.88
2023-07-11T21:18:20.617Z,6.50
2023-07-11T21:20:49.827Z,7.22
2023-07-11T21:23:16.645Z,6.95
2023-07-11T21:25:44.318Z,7.53
2023-07-11T21:28:24.799Z,7.47
2023-07-11T21:30:51.796Z,7.72
2023-07-11T21:33:19.477Z,7.03
2023-07-11T21:35:47.185Z,7.20
2023-07-11T21:38:31.769Z,7.32
2023-07-11T21:41:00.131Z,7.20
2023-07-11T21:43:26.833Z,7.60
2023-07-11T21:45:56.736Z,7.68
2023-07-11T21:48:26.611Z,7.80
2023-07-11T21:50:58.301Z,7.55
2023-07-11T21:53:27.093Z,7.05
2023-07-11T21:55:59.411Z,6.88
2023-07-11T21:58:26.483Z,6.68
2023-07-11T22:00:53.747Z,6.38
2023-07-11T22:03:23.548Z,6.82
2023-07-11T22:05:55.839Z,7.70
2023-07-11T22:08:28.917Z,6.57
2023-07-11T22:10:56.412Z,7.40
2023-07-11T22:13:26.924Z,7.18
2023-07-11T22:15:53.816Z,6.85
2023-07-11T22:18:25.090Z,7.10
2023-07-11T22:20:51.839Z,7.95
2023-07-11T22:23:18.901Z,7.15
2023-07-11T22:25:46.032Z,7.00
2023-07-11T22:28:16.670Z,7.10
2023-07-11T22:30:45.258Z,6.50
2023-07-11T22:33:13.813Z,6.90
2023-07-11T22:35:40.476Z,6.68
2023-07-11T22:38:08.034Z,6.65
2023-07-11T22:40:42.637Z,7.00
2023-07-11T22:43:12.083Z,8.35
2023-07-11T22:45:39.224Z,6.78
2023-07-11T22:48:06.613Z,7.18
2023-07-11T22:50:38.091Z,7.80
2023-07-11T22:53:10.775Z,8.13
2023-07-11T22:55:39.044Z,9.52
2023-07-11T22:58:06.733Z,9.40
2023-07-11T23:00:36.161Z,8.73
2023-07-11T23:03:04.207Z,8.50
2023-07-11T23:05:31.294Z,8.70
2023-07-11T23:07:57.688Z,7.93
2023-07-11T23:10:39.337Z,8.77
2023-07-11T23:13:05.922Z,8.57
2023-07-11T23:15:32.573Z,8.73
2023-07-11T23:17:59.317Z,8.85
2023-07-11T23:20:40.157Z,8.57
2023-07-11T23:23:06.609Z,8.30
2023-07-11T23:25:33.202Z,8.40
2023-07-11T23:28:02.609Z,8.98
2023-07-11T23:30:38.600Z,9.07
2023-07-11T23:33:05.057Z,8.73
2023-07-11T23:35:33.942Z,8.75
2023-07-11T23:38:02.470Z,9.27
2023-07-11T23:40:37.028Z,8.43
2023-07-11T23:43:06.928Z,8.90
2023-07-11T23:45:36.899Z,9.25
2023-07-11T23:48:05.200Z,9.18
2023-07-11T23:50:36.898Z,9.57
2023-07-11T23:53:04.669Z,9.23
2023-07-11T23:55:32.071Z,9.77
2023-07-11T23:57:58.429Z,8.95
